Time;durP1;ratioP1;P1;durP2;ratioP2;P2;SDS_P1;SDS_P2;PMS_P1;PMS_P2;Temp;Humidity;BMP_temperature;BMP_pressure;BME280_temperature;BME280_humidity;BME280_pressure;Samples;Min_cycle;Max_cycle;Signal;HPM_P1;HPM_P2
2022/01/15 00:00:38;;;;;;;127.50;51.58;;;;;;;-3.53;nan;101322.09;5093635;28;20020;-70
2022/01/15 00:03:05;;;;;;;122.95;49.55;;;;;;;-3.54;nan;101316.13;5085585;28;20044;-71
2022/01/15 00:05:31;;;;;;;118.50;47.85;;;;;;;-3.50;nan;101329.56;5073162;28;20033;-71
2022/01/15 00:07:58;;;;;;;117.07;47.97;;;;;;;-3.38;nan;101348.47;5072590;28;20032;-71
2022/01/15 00:10:28;;;;;;;108.63;44.28;;;;;;;-3.46;nan;101334.41;5072690;28;20047;-71
2022/01/15 00:12:59;;;;;;;104.03;43.63;;;;;;;-3.44;nan;101336.88;5049789;28;20033;-71
2022/01/15 00:15:32;;;;;;;111.72;43.58;;;;;;;-3.42;nan;101337.59;5072788;28;20147;-71
2022/01/15 00:18:01;;;;;;;104.97;41.28;;;;;;;-3.41;nan;101344.38;5072441;28;20042;-71
2022/01/15 00:20:28;;;;;;;101.77;41.97;;;;;;;-3.44;nan;101335.13;5050348;28;20036;-71
2022/01/15 00:22:55;;;;;;;102.25;42.80;;;;;;;-3.55;nan;101313.66;5071935;28;20038;-72
2022/01/15 00:25:22;;;;;;;103.82;42.80;;;;;;;-3.40;nan;101350.34;5072973;28;20032;-71
2022/01/15 00:27:48;;;;;;;106.63;43.92;;;;;;;-3.50;nan;101337.31;5054856;28;20075;-70
2022/01/15 00:30:14;;;;;;;106.85;44.05;;;;;;;-3.41;nan;101344.38;5051497;28;20056;-72
2022/01/15 00:32:40;;;;;;;109.78;44.42;;;;;;;-3.38;nan;101351.88;5036326;28;20083;-71
2022/01/15 00:35:07;;;;;;;108.03;44.70;;;;;;;-3.37;nan;101356.09;5054645;28;20124;-72
2022/01/15 00:37:33;;;;;;;105.70;45.58;;;;;;;-3.42;nan;101340.97;5072445;28;20032;-72
2022/01/15 00:40:00;;;;;;;111.85;45.45;;;;;;;-3.30;nan;101359.88;5072881;28;20545;-72
2022/01/15 00:42:27;;;;;;;121.32;46.97;;;;;;;-3.30;nan;101365.03;5054322;28;20066;-72
2022/01/15 00:44:53;;;;;;;139.73;52.88;;;;;;;-3.32;nan;101366.88;5054309;28;20029;-71
2022/01/15 00:47:18;;;;;;;133.57;54.47;;;;;;;-3.38;nan;101346.72;5057251;28;20039;-71
2022/01/15 00:49:44;;;;;;;123.07;50.40;;;;;;;-3.33;nan;101360.06;5072454;28;20366;-71
2022/01/15 00:52:09;;;;;;;131.77;52.25;;;;;;;-3.24;nan;101364.56;5072401;28;20060;-71
2022/01/15 00:54:34;;;;;;;128.65;51.05;;;;;;;-3.16;nan;101368.34;5072914;28;20029;-71
2022/01/15 00:57:00;;;;;;;123.95;52.28;;;;;;;-3.24;nan;101335.41;5072218;28;20074;-71
2022/01/15 00:59:25;;;;;;;138.88;55.58;;;;;;;-3.11;nan;101345.63;5072773;28;20149;-72
2022/01/15 01:01:51;;;;;;;134.27;56.55;;;;;;;-3.08;nan;101348.81;5072294;28;20085;-71
2022/01/15 01:04:16;;;;;;;140.98;56.53;;;;;;;-3.01;nan;101357.75;5073890;28;20132;-70
2022/01/15 01:06:41;;;;;;;136.65;52.80;;;;;;;-2.97;nan;101347.19;5072084;28;20048;-70
2022/01/15 01:09:07;;;;;;;114.93;50.28;;;;;;;-2.90;nan;101341.47;5053911;28;20394;-72
2022/01/15 01:11:45;;;;;;;120.85;50.15;;;;;;;-2.85;nan;101359.19;5054525;28;20478;-71
2022/01/15 01:24:32;;;;;;;113.07;47.90;;;;;;;-2.59;nan;101380.44;5072302;28;20041;-71
2022/01/15 01:27:06;;;;;;;114.95;47.35;;;;;;;-2.59;nan;101378.69;5071815;28;20028;-71
2022/01/15 01:30:18;;;;;;;120.10;49.13;;;;;;;-2.57;nan;101387.13;5072498;28;20032;-70
2022/01/15 01:34:51;;;;;;;120.13;51.25;;;;;;;-2.63;nan;101384.22;5061385;28;20020;-71
2022/01/15 01:37:24;;;;;;;122.45;50.53;;;;;;;-2.55;nan;101397.34;5076107;28;20033;-71
2022/01/15 01:39:55;;;;;;;121.88;51.15;;;;;;;-2.62;nan;101391.81;5076131;28;20035;-71
2022/01/15 01:45:11;;;;;;;123.00;51.92;;;;;;;-2.51;nan;101398.75;5075884;28;20151;-71
2022/01/15 01:47:40;;;;;;;114.38;47.38;;;;;;;-2.68;nan;101369.06;5075947;28;20418;-71
2022/01/15 01:50:13;;;;;;;114.40;47.38;;;;;;;-2.49;nan;101399.47;5057765;28;20033;-71
2022/01/15 01:52:40;;;;;;;113.78;47.60;;;;;;;-2.55;nan;101402.50;5075704;28;20060;-71
2022/01/15 01:55:06;;;;;;;103.05;45.38;;;;;;;-2.49;nan;101416.66;5075938;28;20493;-72
2022/01/15 01:57:32;;;;;;;104.55;44.70;;;;;;;-2.55;nan;101414.56;5073988;28;20044;-72
2022/01/15 01:59:58;;;;;;;101.60;42.92;;;;;;;-2.57;nan;101422.41;5064396;28;20036;-72
2022/01/15 02:02:23;;;;;;;101.47;43.45;;;;;;;-2.70;nan;101406.22;5075525;28;20162;-71
2022/01/15 02:04:48;;;;;;;105.82;42.95;;;;;;;-2.69;nan;101418.97;5093957;28;20052;-72
2022/01/15 02:07:14;;;;;;;99.10;40.42;;;;;;;-2.68;nan;101418.06;5095859;28;20036;-72
2022/01/15 02:09:40;;;;;;;109.15;43.65;;;;;;;-2.65;nan;101429.91;5097248;28;20093;-72
2022/01/15 02:12:06;;;;;;;103.20;43.08;;;;;;;-2.71;nan;101427.75;5096825;28;20032;-71
2022/01/15 02:14:31;;;;;;;108.72;44.65;;;;;;;-2.76;nan;101432.44;5115130;28;20031;-71
2022/01/15 02:16:58;;;;;;;103.18;42.83;;;;;;;-2.77;nan;101436.78;5105874;28;20035;-71
2022/01/15 02:19:43;;;;;;;106.93;43.15;;;;;;;-2.69;nan;101446.53;5095643;28;20034;-72
2022/01/15 02:24:53;;;;;;;106.05;43.75;;;;;;;-2.75;nan;101437.50;5095235;28;20036;-72
2022/01/15 02:27:18;;;;;;;108.38;43.75;;;;;;;-3.05;nan;101402.69;5094053;28;20386;-71
2022/01/15 02:29:43;;;;;;;102.95;42.92;;;;;;;-2.87;nan;101433.25;5095272;28;20028;-71
2022/01/15 02:32:09;;;;;;;104.18;42.25;;;;;;;-2.89;nan;101432.53;5095284;28;20050;-72
2022/01/15 02:34:34;;;;;;;103.60;43.03;;;;;;;-2.81;nan;101459.38;5094833;28;20028;-69
2022/01/15 02:36:59;;;;;;;106.00;42.65;;;;;;;-2.84;nan;101438.97;5094952;28;20035;-71
2022/01/15 02:39:25;;;;;;;103.38;42.78;;;;;;;-2.79;nan;101460.06;5095008;28;20406;-71
2022/01/15 02:41:50;;;;;;;97.97;42.00;;;;;;;-2.84;nan;101445.91;5095116;28;20039;-71
2022/01/15 02:44:19;;;;;;;102.85;43.30;;;;;;;-2.84;nan;101476.81;5093827;28;20063;-71
2022/01/15 02:49:13;;;;;;;80.70;32.50;;;;;;;-2.94;nan;101468.13;5094913;28;20388;-71
2022/01/15 02:51:38;;;;;;;99.63;42.13;;;;;;;-2.92;nan;101477.38;5093452;28;20123;-71
2022/01/15 02:54:05;;;;;;;103.47;40.95;;;;;;;-2.91;nan;101463.56;5095059;28;20119;-71
2022/01/15 02:56:36;;;;;;;97.28;41.00;;;;;;;-2.97;nan;101473.47;5095034;28;20063;-72
2022/01/15 02:59:03;;;;;;;101.38;41.83;;;;;;;-3.01;nan;101472.88;5093600;28;20447;-72
2022/01/15 03:01:30;;;;;;;99.18;42.58;;;;;;;-3.02;nan;101477.22;5094594;28;20494;-72
2022/01/15 03:03:55;;;;;;;102.40;41.47;;;;;;;-3.15;nan;101457.59;5081354;28;20098;-72
2022/01/15 03:06:21;;;;;;;104.20;42.30;;;;;;;-3.05;nan;101476.59;5074450;28;20399;-71
2022/01/15 03:08:49;;;;;;;109.97;43.78;;;;;;;-3.14;nan;101472.09;5073653;28;20032;-71
2022/01/15 03:11:15;;;;;;;104.38;43.30;;;;;;;-3.20;nan;101473.38;5074424;28;20070;-71
2022/01/15 03:13:42;;;;;;;98.68;42.67;;;;;;;-3.18;nan;101476.66;5074194;28;20429;-72
2022/01/15 03:16:09;;;;;;;113.93;45.72;;;;;;;-3.09;nan;101481.16;5055063;28;20095;-71
2022/01/15 03:18:35;;;;;;;104.07;43.90;;;;;;;-3.06;nan;101490.44;5074056;28;20033;-71
2022/01/15 03:21:00;;;;;;;103.93;41.63;;;;;;;-3.03;nan;101491.03;5074045;28;20432;-71
2022/01/15 03:23:26;;;;;;;100.88;41.60;;;;;;;-3.04;nan;101485.97;5073966;28;20039;-71
2022/01/15 03:25:52;;;;;;;100.95;41.00;;;;;;;-3.00;nan;101489.97;5055608;28;20119;-71
2022/01/15 03:28:17;;;;;;;97.55;39.92;;;;;;;-3.01;nan;101499.47;5074036;28;20437;-71
2022/01/15 03:30:43;;;;;;;93.30;38.53;;;;;;;-3.15;nan;101478.19;5055530;28;20079;-70
2022/01/15 03:33:08;;;;;;;94.03;41.35;;;;;;;-3.13;nan;101484.88;5073611;28;20031;-72
2022/01/15 03:35:35;;;;;;;97.55;40.70;;;;;;;-3.01;nan;101504.63;5073849;28;20368;-71
2022/01/15 03:38:02;;;;;;;95.88;39.63;;;;;;;-3.16;nan;101476.53;5055136;28;20024;-71
2022/01/15 03:40:27;;;;;;;98.80;39.28;;;;;;;-3.13;nan;101487.47;5073612;28;20043;-71
2022/01/15 03:42:53;;;;;;;86.38;38.15;;;;;;;-3.02;nan;101503.00;5073446;28;20024;-71
2022/01/15 03:45:18;;;;;;;95.70;38.20;;;;;;;-3.00;nan;101508.00;5073675;28;20463;-71
2022/01/15 03:47:45;;;;;;;97.10;38.67;;;;;;;-3.05;nan;101497.22;5055210;28;20036;-71
2022/01/15 03:50:12;;;;;;;93.57;39.75;;;;;;;-3.30;nan;101467.22;5073300;28;20024;-72
2022/01/15 03:52:38;;;;;;;98.93;40.42;;;;;;;-3.07;nan;101491.34;5073394;28;20032;-72
2022/01/15 03:55:06;;;;;;;90.72;37.10;;;;;;;-3.03;nan;101498.75;5072985;28;20375;-71
2022/01/15 03:57:32;;;;;;;97.82;38.25;;;;;;;-3.02;nan;101502.16;5073514;28;20059;-72
2022/01/15 03:59:58;;;;;;;94.93;37.95;;;;;;;-3.07;nan;101492.16;5072895;28;20471;-72
2022/01/15 04:02:24;;;;;;;93.38;38.75;;;;;;;-3.06;nan;101517.00;5072853;28;20031;-72
2022/01/15 04:04:49;;;;;;;95.97;38.47;;;;;;;-3.17;nan;101498.09;5072722;28;20032;-71
2022/01/15 04:07:15;;;;;;;86.72;36.58;;;;;;;-3.05;nan;101515.25;5072800;28;20032;-71
2022/01/15 04:09:40;;;;;;;82.07;35.13;;;;;;;-3.05;nan;101528.94;5072628;28;20036;-71
2022/01/15 04:12:06;;;;;;;83.30;36.03;;;;;;;-3.12;nan;101514.84;5051972;28;20048;-71
2022/01/15 04:14:31;;;;;;;85.32;36.17;;;;;;;-3.22;nan;101516.44;5072842;28;20028;-71
2022/01/15 04:16:57;;;;;;;89.10;36.35;;;;;;;-3.31;nan;101524.81;5072374;28;20032;-72
2022/01/15 04:19:24;;;;;;;85.18;36.67;;;;;;;-3.48;nan;101505.38;5070840;28;20567;-71
2022/01/15 04:21:49;;;;;;;99.53;40.25;;;;;;;-3.53;nan;101516.00;5072689;28;20040;-70
2022/01/15 04:24:14;;;;;;;99.78;39.75;;;;;;;-3.65;nan;101509.94;5072660;28;20033;-71
2022/01/15 04:26:40;;;;;;;100.45;39.05;;;;;;;-3.61;nan;101526.00;5072595;28;20040;-71
2022/01/15 04:29:06;;;;;;;94.53;39.08;;;;;;;-3.70;nan;101527.44;5072571;28;20596;-72
2022/01/15 04:31:49;;;;;;;97.60;41.70;;;;;;;-3.72;nan;101526.72;5072176;28;20119;-71
2022/01/15 04:34:16;;;;;;;105.85;42.72;;;;;;;-3.65;nan;101545.16;5072356;28;20055;-72
2022/01/15 04:36:42;;;;;;;100.22;40.97;;;;;;;-3.81;nan;101526.53;5072206;28;20032;-72
2022/01/15 04:39:09;;;;;;;95.68;39.70;;;;;;;-3.81;nan;101526.53;5053867;28;20035;-72
2022/01/15 04:41:34;;;;;;;98.72;40.45;;;;;;;-3.76;nan;101539.91;5071994;28;20054;-71
2022/01/15 04:44:00;;;;;;;100.60;40.03;;;;;;;-3.70;nan;101553.19;5044963;28;20033;-71
2022/01/15 04:46:25;;;;;;;90.85;39.05;;;;;;;-3.85;nan;101533.63;5053848;28;20201;-71
2022/01/15 04:48:51;;;;;;;101.00;38.90;;;;;;;-3.84;nan;101548.13;5072118;28;20130;-71
2022/01/15 04:51:16;;;;;;;96.03;38.63;;;;;;;-3.89;nan;101535.59;5072097;28;20029;-70
2022/01/15 04:53:41;;;;;;;93.82;37.55;;;;;;;-3.73;nan;101568.84;5054339;28;20044;-71
2022/01/15 04:56:07;;;;;;;95.13;37.05;;;;;;;-3.70;nan;101584.06;5053875;28;20122;-71
2022/01/15 04:58:32;;;;;;;93.15;38.90;;;;;;;-3.72;nan;101583.34;5072336;28;20173;-71
2022/01/15 05:00:57;;;;;;;107.72;41.78;;;;;;;-3.72;nan;101580.78;5072159;28;20028;-72
2022/01/15 05:03:23;;;;;;;102.07;40.72;;;;;;;-3.73;nan;101584.28;5071688;28;20041;-72
2022/01/15 05:05:48;;;;;;;94.82;38.83;;;;;;;-3.67;nan;101589.00;5072014;28;20119;-73
2022/01/15 05:08:14;;;;;;;107.45;40.75;;;;;;;-3.66;nan;101585.53;5072208;28;20078;-70
2022/01/15 05:10:45;;;;;;;114.13;43.50;;;;;;;-3.74;nan;101568.94;5071977;28;20036;-72
2022/01/15 05:13:14;;;;;;;106.72;42.50;;;;;;;-3.87;nan;101556.88;5071182;28;20482;-72
2022/01/15 05:15:42;;;;;;;96.63;41.05;;;;;;;-3.77;nan;101585.41;5054175;28;20036;-72
2022/01/15 05:18:08;;;;;;;102.72;39.38;;;;;;;-3.81;nan;101586.53;5045722;28;20112;-71
2022/01/15 05:20:34;;;;;;;99.10;39.42;;;;;;;-3.86;nan;101580.88;5053675;28;20068;-73
2022/01/15 05:23:00;;;;;;;104.45;40.95;;;;;;;-3.93;nan;101579.63;5071766;28;20099;-72
2022/01/15 05:25:25;;;;;;;99.80;40.80;;;;;;;-3.95;nan;101579.75;5071593;28;20043;-72
2022/01/15 05:27:51;;;;;;;104.60;40.72;;;;;;;-3.83;nan;101597.84;5071892;28;20039;-72
2022/01/15 05:30:16;;;;;;;107.43;41.97;;;;;;;-3.75;nan;101617.00;5071604;28;20040;-73
2022/01/15 05:32:42;;;;;;;108.13;42.75;;;;;;;-3.71;nan;101617.63;5071952;28;20033;-73
2022/01/15 05:35:09;;;;;;;111.90;43.55;;;;;;;-3.68;nan;101617.44;5071315;28;20024;-73
2022/01/15 05:37:36;;;;;;;112.35;44.45;;;;;;;-3.59;nan;101621.13;5071535;28;20516;-72
2022/01/15 05:40:03;;;;;;;115.05;44.72;;;;;;;-3.56;nan;101619.19;5071706;28;20139;-72
2022/01/15 05:42:28;;;;;;;118.18;44.30;;;;;;;-3.55;nan;101620.00;5071235;28;20028;-72
2022/01/15 05:44:54;;;;;;;107.40;42.78;;;;;;;-3.51;nan;101617.13;5046953;28;20034;-72
2022/01/15 05:47:19;;;;;;;104.65;43.25;;;;;;;-3.52;nan;101617.22;5052744;28;20036;-71
2022/01/15 05:49:45;;;;;;;112.75;43.03;;;;;;;-3.53;nan;101618.97;5071460;28;20533;-72
2022/01/15 05:52:10;;;;;;;112.20;43.50;;;;;;;-3.55;nan;101613.09;5071786;28;20033;-71
2022/01/15 05:54:36;;;;;;;109.75;43.08;;;;;;;-3.44;nan;101628.66;5054142;28;20146;-71
2022/01/15 05:57:01;;;;;;;109.72;43.10;;;;;;;-3.48;nan;101629.78;5071523;28;20032;-73
2022/01/15 05:59:26;;;;;;;107.85;42.38;;;;;;;-3.45;nan;101629.59;5071520;28;20032;-71
2022/01/15 06:01:52;;;;;;;115.93;44.08;;;;;;;-3.39;nan;101641.22;5071452;28;20476;-73
2022/01/15 06:04:17;;;;;;;105.35;43.60;;;;;;;-3.40;nan;101641.31;5071004;28;20487;-72
2022/01/15 06:06:43;;;;;;;107.53;42.90;;;;;;;-3.43;nan;101640.59;5061425;28;20041;-72
2022/01/15 06:09:08;;;;;;;111.30;43.92;;;;;;;-3.42;nan;101641.44;5071111;28;20113;-72
2022/01/15 06:11:38;;;;;;;115.50;44.22;;;;;;;-3.51;nan;101627.44;5053441;28;20086;-73
2022/01/15 06:14:04;;;;;;;117.93;45.85;;;;;;;-3.37;nan;101651.44;5044268;28;20509;-73
2022/01/15 06:16:30;;;;;;;107.32;43.38;;;;;;;-3.42;nan;101631.97;5071127;28;20409;-73
2022/01/15 06:18:55;;;;;;;122.40;47.95;;;;;;;-3.40;nan;101642.13;5056048;28;20119;-71
2022/01/15 06:21:21;;;;;;;120.90;46.70;;;;;;;-3.29;nan;101649.97;5075724;28;20063;-71
2022/01/15 06:23:46;;;;;;;110.60;45.30;;;;;;;-3.29;nan;101649.16;5075359;28;20031;-71
2022/01/15 06:26:12;;;;;;;115.97;45.72;;;;;;;-3.35;nan;101637.53;5075227;28;20036;-71
2022/01/15 06:28:38;;;;;;;113.80;45.55;;;;;;;-3.28;nan;101654.22;5075102;28;20071;-71
2022/01/15 06:31:03;;;;;;;119.55;47.78;;;;;;;-3.36;nan;101647.91;5056983;28;20051;-72
2022/01/15 06:33:28;;;;;;;122.22;48.80;;;;;;;-3.47;nan;101628.03;5075167;28;20029;-71
2022/01/15 06:35:54;;;;;;;112.15;45.65;;;;;;;-3.31;nan;101649.25;5075216;28;20043;-72
2022/01/15 06:38:19;;;;;;;108.68;45.42;;;;;;;-3.24;nan;101657.38;5056929;28;20432;-74
2022/01/15 06:40:45;;;;;;;121.47;47.50;;;;;;;-3.15;nan;101667.06;5055297;28;20040;-73
2022/01/15 06:43:10;;;;;;;114.18;49.15;;;;;;;-3.20;nan;101658.84;5074497;28;20520;-72
2022/01/15 06:45:35;;;;;;;117.47;47.10;;;;;;;-3.08;nan;101680.38;5072089;28;20128;-73
2022/01/15 06:48:02;;;;;;;118.72;50.13;;;;;;;-3.02;nan;101679.94;5074382;28;20470;-73
2022/01/15 06:50:28;;;;;;;120.45;49.88;;;;;;;-3.02;nan;101679.94;5072322;28;20040;-70
2022/01/15 06:52:54;;;;;;;123.07;50.33;;;;;;;-3.01;nan;101685.00;5074321;28;20039;-71
2022/01/15 06:55:19;;;;;;;128.55;50.60;;;;;;;-3.00;nan;101681.47;5074717;28;20032;-70
2022/01/15 06:57:45;;;;;;;137.15;53.45;;;;;;;-3.02;nan;101682.50;5074242;28;20075;-71
2022/01/15 07:00:12;;;;;;;131.40;49.88;;;;;;;-2.93;nan;101696.53;5065750;28;20033;-72
2022/01/15 07:02:38;;;;;;;123.18;51.63;;;;;;;-2.95;nan;101686.31;5060351;28;20033;-72
2022/01/15 07:05:05;;;;;;;120.32;51.05;;;;;;;-2.92;nan;101686.13;5072371;28;20386;-72
2022/01/15 07:07:31;;;;;;;127.57;49.70;;;;;;;-2.87;nan;101690.97;5073580;28;20032;-72
2022/01/15 07:09:56;;;;;;;119.25;48.22;;;;;;;-3.08;nan;101652.84;5055879;28;20043;-72
2022/01/15 07:12:22;;;;;;;124.07;48.72;;;;;;;-2.75;nan;101700.44;5063137;28;20125;-73
2022/01/15 07:14:47;;;;;;;131.43;51.15;;;;;;;-2.70;nan;101702.69;5068489;28;20410;-72
2022/01/15 07:17:13;;;;;;;129.43;52.92;;;;;;;-2.71;nan;101703.63;5073716;28;20538;-72
2022/01/15 07:19:38;;;;;;;129.27;51.85;;;;;;;-2.66;nan;101694.66;5073257;28;20038;-72
2022/01/15 07:22:05;;;;;;;127.90;52.92;;;;;;;-2.80;nan;101677.56;5073737;28;20066;-73
2022/01/15 07:24:30;;;;;;;132.95;53.65;;;;;;;-2.64;nan;101697.91;5073316;28;20478;-72
2022/01/15 07:26:56;;;;;;;133.20;53.92;;;;;;;-2.53;nan;101699.75;5067259;28;20082;-73
2022/01/15 07:29:23;;;;;;;131.88;53.78;;;;;;;-2.53;nan;101697.19;5056932;28;20036;-72
2022/01/15 07:31:49;;;;;;;137.52;54.03;;;;;;;-2.38;nan;101724.47;5070747;28;20036;-72
2022/01/15 07:34:15;;;;;;;137.27;55.03;;;;;;;-2.50;nan;101702.13;5067414;28;20390;-73
2022/01/15 07:36:42;;;;;;;135.23;53.00;;;;;;;-2.37;nan;101726.13;5058055;28;20028;-73
2022/01/15 07:39:08;;;;;;;142.60;55.75;;;;;;;-2.33;nan;101721.56;5073146;28;20115;-73
2022/01/15 07:41:34;;;;;;;128.10;54.75;;;;;;;-2.29;nan;101719.59;5073393;28;20029;-73
2022/01/15 07:44:00;;;;;;;124.53;52.63;;;;;;;-2.32;nan;101705.19;5054888;28;20033;-73
2022/01/15 07:46:26;;;;;;;129.32;53.78;;;;;;;-2.15;nan;101727.19;5055080;28;20364;-74
2022/01/15 07:48:51;;;;;;;139.52;54.78;;;;;;;-2.22;nan;101713.09;5054478;28;20111;-73
2022/01/15 07:51:17;;;;;;;138.43;56.45;;;;;;;-2.18;nan;101711.91;5073169;28;20424;-73
2022/01/15 07:53:43;;;;;;;137.35;55.47;;;;;;;-2.05;nan;101727.38;5067137;28;20029;-73
2022/01/15 07:56:08;;;;;;;145.00;56.70;;;;;;;-2.10;nan;101727.69;5057467;28;20033;-73
2022/01/15 07:58:33;;;;;;;137.15;55.55;;;;;;;-2.03;nan;101739.22;5055474;28;20163;-73
2022/01/15 08:00:59;;;;;;;145.60;56.97;;;;;;;-1.91;nan;101760.75;5064193;28;20393;-73
2022/01/15 08:03:24;;;;;;;145.32;58.35;;;;;;;-1.90;nan;101746.91;5060012;28;20044;-73
2022/01/15 08:05:50;;;;;;;137.32;54.45;;;;;;;-1.77;nan;101752.03;5073246;28;20423;-75
2022/01/15 08:08:16;;;;;;;142.15;56.58;;;;;;;;;;5072666;28;20097;-75
2022/01/15 08:10:42;;;;;;;140.35;55.80;;;;;;;;;;5072809;28;20040;-75
2022/01/15 08:13:07;;;;;;;135.45;54.53;;;;;;;;;;5063469;28;20029;-75
2022/01/15 08:15:33;;;;;;;143.38;57.65;;;;;;;;;;5071053;28;20039;-75
2022/01/15 08:17:58;;;;;;;150.73;57.80;;;;;;;;;;5071980;28;20042;-74
2022/01/15 08:20:24;;;;;;;146.88;59.55;;;;;;;;;;5072903;28;20036;-75
2022/01/15 08:22:51;;;;;;;146.48;59.28;;;;;;;;;;5072510;28;20072;-74
2022/01/15 08:25:16;;;;;;;166.77;62.90;;;;;;;;;;5072638;28;20090;-74
2022/01/15 08:27:42;;;;;;;152.27;63.55;;;;;;;;;;5072298;28;20036;-75
2022/01/15 08:30:07;;;;;;;158.75;63.63;;;;;;;;;;5072654;28;20029;-74
2022/01/15 08:32:33;;;;;;;151.68;60.95;;;;;;;;;;5072396;28;20432;-75
2022/01/15 08:34:58;;;;;;;140.10;56.60;;;;;;;;;;5071962;28;20078;-74
2022/01/15 08:37:23;;;;;;;152.73;60.27;;;;;;;;;;5072421;28;20276;-75
2022/01/15 08:39:48;;;;;;;152.67;62.70;;;;;;;;;;5053948;28;20710;-75
2022/01/15 08:42:14;;;;;;;144.07;59.38;;;;;;;;;;5071673;28;20265;-75
2022/01/15 08:44:42;;;;;;;149.73;62.60;;;;;;;;;;5053843;28;20470;-74
2022/01/15 08:47:08;;;;;;;151.05;62.65;;;;;;;;;;5072329;28;20102;-74
2022/01/15 08:49:34;;;;;;;144.52;60.95;;;;;;;-0.91;nan;101777.50;5072145;28;20029;-74
2022/01/15 08:51:59;;;;;;;149.90;63.17;;;;;;;-0.80;nan;101778.44;5072079;28;20040;-74
2022/01/15 08:54:25;;;;;;;147.80;61.20;;;;;;;-0.79;nan;101772.31;5072144;28;20024;-74
2022/01/15 08:56:50;;;;;;;150.25;63.10;;;;;;;-0.65;nan;101785.88;5053994;28;20036;-74
2022/01/15 08:59:15;;;;;;;170.98;68.63;;;;;;;-0.61;nan;101776.09;5072010;28;20032;-74
2022/01/15 09:01:41;;;;;;;166.85;63.80;;;;;;;-0.58;nan;101767.28;5071876;28;20044;-74
2022/01/15 09:04:06;;;;;;;143.30;59.33;;;;;;;-0.49;nan;101777.75;5071597;28;20047;-74
2022/01/15 09:06:32;;;;;;;138.75;58.03;;;;;;;-0.33;nan;101790.31;5071589;28;20065;-74
2022/01/15 09:08:58;;;;;;;148.60;60.17;;;;;;;-0.27;nan;101776.88;5071443;28;20028;-74
2022/01/15 09:11:23;;;;;;;133.80;57.03;;;;;;;-0.18;nan;101780.53;5054171;28;20040;-75
2022/01/15 09:13:49;;;;;;;131.20;53.65;;;;;;;-0.12;nan;101771.47;5071628;28;20036;-75
2022/01/15 09:16:15;;;;;;;134.10;52.28;;;;;;;0.01;nan;101779.09;5071819;28;20067;-75
2022/01/15 09:18:40;;;;;;;125.93;53.15;;;;;;;0.06;nan;101772.59;5071600;28;20058;-75
2022/01/15 09:21:06;;;;;;;126.03;53.00;;;;;;;0.19;nan;101780.19;5071979;28;20545;-76
2022/01/15 09:23:32;;;;;;;130.15;52.70;;;;;;;0.24;nan;101769.47;5071958;28;20545;-75
2022/01/15 09:25:58;;;;;;;131.25;55.20;;;;;;;0.35;nan;101775.44;5071801;28;20119;-75
2022/01/15 09:31:11;;;;;;;126.78;52.25;;;;;;;0.68;nan;101768.47;5072080;28;20111;-74
2022/01/15 09:33:36;;;;;;;119.93;51.70;;;;;;;;;;5071131;28;20486;-75
2022/01/15 09:36:01;;;;;;;125.70;54.57;;;;;;;;;;5062800;28;20043;-76
2022/01/15 09:38:26;;;;;;;107.05;48.03;;;;;;;;;;5050856;28;20328;-74
2022/01/15 09:40:54;;;;;;;123.43;52.42;;;;;;;;;;5071495;28;20487;-75
2022/01/15 09:43:19;;;;;;;112.82;50.95;;;;;;;;;;5053100;28;20040;-74
2022/01/15 09:45:45;;;;;;;117.60;50.97;;;;;;;;;;5053444;28;20028;-75
2022/01/15 09:48:10;;;;;;;114.20;51.38;;;;;;;;;;5052479;28;20505;-74
2022/01/15 09:50:37;;;;;;;106.68;47.63;;;;;;;;;;5047810;28;20075;-75
2022/01/15 09:53:03;;;;;;;100.55;43.60;;;;;;;;;;5051436;28;20115;-75
2022/01/15 09:55:28;;;;;;;104.03;44.97;;;;;;;;;;5071072;28;20178;-78
2022/01/15 09:57:54;;;;;;;101.15;43.42;;;;;;;;;;5057032;28;20486;-77
2022/01/15 10:00:20;;;;;;;100.53;43.78;;;;;;;;;;5077591;28;20044;-76
2022/01/15 10:02:46;;;;;;;89.13;37.75;;;;;;;;;;5052785;28;20101;-77
2022/01/15 10:05:12;;;;;;;90.82;38.95;;;;;;;;;;5055184;28;20043;-77
2022/01/15 10:07:37;;;;;;;81.30;36.08;;;;;;;;;;5075159;28;20031;-74
2022/01/15 10:10:18;;;;;;;82.72;36.80;;;;;;;;;;5052671;28;20028;-74
2022/01/15 10:12:44;;;;;;;85.75;37.63;;;;;;;;;;5066479;28;20036;-74
2022/01/15 10:15:10;;;;;;;85.00;37.05;;;;;;;;;;5066909;28;20037;-74
2022/01/15 10:17:37;;;;;;;81.57;36.97;;;;;;;;;;5052874;28;20064;-75
2022/01/15 10:20:07;;;;;;;82.28;35.63;;;;;;;;;;5057231;28;20029;-73
2022/01/15 10:22:32;;;;;;;80.15;34.90;;;;;;;;;;5060692;28;20060;-74
2022/01/15 10:24:58;;;;;;;75.10;33.53;;;;;;;;;;5064657;28;20102;-74
2022/01/15 10:27:23;;;;;;;81.78;36.15;;;;;;;;;;5051709;28;20029;-74
2022/01/15 10:29:50;;;;;;;82.25;36.22;;;;;;;;;;5052349;28;20040;-73
2022/01/15 10:32:15;;;;;;;85.70;38.67;;;;;;;;;;5049080;28;20149;-73
2022/01/15 10:34:42;;;;;;;89.60;38.10;;;;;;;;;;5066361;28;20443;-75
2022/01/15 10:37:07;;;;;;;86.90;38.17;;;;;;;;;;5074579;28;20315;-75
2022/01/15 10:39:32;;;;;;;83.25;37.28;;;;;;;;;;5074445;28;20032;-74
2022/01/15 10:41:58;;;;;;;76.50;36.30;;;;;;;;;;5056090;28;20382;-74
2022/01/15 10:44:28;;;;;;;69.18;32.90;;;;;;;;;;5056137;28;20339;-72
2022/01/15 10:47:00;;;;;;;94.32;42.28;;;;;;;;;;5053236;28;20067;-73
2022/01/15 10:49:25;;;;;;;124.63;56.17;;;;;;;;;;5056384;28;20590;-74
2022/01/15 10:52:09;;;;;;;130.77;60.53;;;;;;;;;;5074457;28;20077;-74
2022/01/15 10:54:35;;;;;;;145.70;64.10;;;;;;;;;;5055850;28;20120;-72
2022/01/15 10:57:10;;;;;;;128.98;61.55;;;;;;;;;;5073906;28;20186;-74
2022/01/15 10:59:35;;;;;;;134.50;61.63;;;;;;;;;;5072594;28;20394;-73
2022/01/15 11:02:19;;;;;;;129.27;60.47;;;;;;;;;;5072722;28;20044;-73
2022/01/15 11:04:45;;;;;;;130.50;57.97;;;;;;;;;;5072327;28;20055;-74
2022/01/15 11:07:13;;;;;;;119.32;53.88;;;;;;;;;;5055652;28;20032;-74
2022/01/15 11:09:38;;;;;;;114.78;51.45;;;;;;;;;;5073274;28;20035;-74
2022/01/15 11:12:05;;;;;;;110.07;49.88;;;;;;;;;;5054929;28;20550;-74
2022/01/15 11:14:30;;;;;;;112.65;50.90;;;;;;;;;;5074016;28;20111;-74
2022/01/15 11:16:57;;;;;;;128.95;57.85;;;;;;;;;;5066635;28;20047;-73
2022/01/15 11:19:23;;;;;;;96.05;45.10;;;;;;;;;;5055468;28;20059;-74
2022/01/15 11:21:49;;;;;;;98.97;44.80;;;;;;;;;;5072200;28;20028;-75
2022/01/15 11:24:15;;;;;;;94.75;41.25;;;;;;;;;;5055425;28;20067;-74
2022/01/15 11:26:40;;;;;;;86.80;40.95;;;;;;;;;;5073500;28;20115;-75
2022/01/15 11:29:06;;;;;;;85.38;38.83;;;;;;;;;;5073851;28;20457;-74
2022/01/15 11:31:32;;;;;;;83.13;38.63;;;;;;;;;;5073648;28;20458;-75
2022/01/15 11:33:59;;;;;;;88.60;40.03;;;;;;;;;;5071273;28;20754;-74
2022/01/15 11:36:27;;;;;;;90.93;41.90;;;;;;;;;;5073159;28;20040;-73
2022/01/15 11:38:53;;;;;;;99.93;45.30;;;;;;;;;;5072828;28;20028;-73
2022/01/15 11:41:27;;;;;;;93.95;45.45;;;;;;;;;;5073307;28;20035;-74
2022/01/15 11:44:05;;;;;;;86.50;41.88;;;;;;;;;;5073552;28;20032;-75
2022/01/15 11:46:32;;;;;;;85.95;39.15;;;;;;;;;;5073172;28;20036;-74
2022/01/15 11:49:16;;;;;;;82.60;37.15;;;;;;;;;;5055390;28;20028;-76
2022/01/15 11:51:41;;;;;;;81.88;37.10;;;;;;;;;;5045812;28;20036;-75
2022/01/15 11:54:10;;;;;;;87.63;40.73;;;;;;;;;;5059698;28;20026;-75
2022/01/15 11:56:37;;;;;;;82.80;39.90;;;;;;;;;;5059276;28;20292;-74
2022/01/15 11:59:21;;;;;;;94.03;42.17;;;;;;;;;;5055173;28;20387;-75
2022/01/15 12:01:46;;;;;;;90.22;42.20;;;;;;;;;;5072780;28;20063;-76
2022/01/15 12:04:24;;;;;;;94.30;42.63;;;;;;;;;;5071658;28;20044;-76
2022/01/15 12:07:10;;;;;;;107.70;50.28;;;;;;;;;;5072769;28;20261;-76
2022/01/15 12:09:38;;;;;;;103.97;48.00;;;;;;;;;;5054912;28;20029;-75
2022/01/15 12:12:35;;;;;;;95.72;43.97;;;;;;;;;;5071875;28;20509;-76
2022/01/15 12:15:02;;;;;;;89.97;41.47;;;;;;;;;;5067431;28;20123;-75
2022/01/15 12:17:27;;;;;;;86.43;38.80;;;;;;;;;;5041097;28;20082;-75
2022/01/15 12:19:53;;;;;;;79.65;37.70;;;;;;;;;;5054105;28;20029;-76
2022/01/15 12:22:36;;;;;;;90.82;40.83;;;;;;;;;;5073054;28;20032;-75